Mill Run, PA (15464)

2:26 AM EDT on September 18, 2014 (GMT -0400)
Indian Head | Change Station
CLOSE
Current Station
Personal Weather Station
Location: Indian Head, PA
Elevation: 1421 ft
Nearby Weather Stations

Elev 1421 ft 40.03 °N, 79.40 °W | Updated 49 seconds ago

Partly Cloudy
Partly Cloudy
47.1 °F
Feels Like 47 °F
N
0.0
Wind Variable Wind from North

Today
High -- | Low -- °F
--% Chance of Precip.
Yesterday
High -- | Low -- °F
Precip. -- in
7:01 AM 7:21 PM
Waning Crescent, 29% visible
Pressure 30.00 in
Visibility 3.0 miles
Clouds Few 5500 ft
Windchill 47 °F
Dew Point 46 °F
Humidity 94%
Rainfall 0.00 in
Snow Depth Not available.
UV 0 out of 12
Pollen 3.60 out of 12
Air Quality Not available.
Flu Activity Not available.
METAR KLBE 180615Z AUTO 00000KT 3SM BR FEW055 09/09 A3000 RMK A02 P000

More Conditions Fewer Conditions

Pressure 30.00 in
Visibility 3.0 miles
Clouds Few 5500 ft
Windchill 47 °F
Dew Point 46 °F
Humidity 94%
Rainfall 0.00 in
Snow Depth Not available.
UV 0 out of 12
Pollen 3.60 out of 12
Air Quality Not available.
Flu Activity Not available.
METAR KLBE 180615Z AUTO 00000KT 3SM BR FEW055 09/09 A3000 RMK A02 P000

More Conditions Fewer Conditions

10-Day Weather Forecast

Almanac

Astronomy

Sep. 18, 2014 Rise Set
Actual Time 7:01 AM EDT 7:21 PM EDT
Civil Twilight 6:34 AM EDT 7:48 PM EDT
Nautical Twilight 6:02 AM EDT 8:20 PM EDT
Astronomical Twilight 5:30 AM EDT 8:52 PM EDT
Moon 1:52 AM EDT 4:11 PM EDT
Length of Visible Light 13h 14m
Length of Day
12h 19m
Tomorrow will be 2m 36s shorter.
Waning Crescent, 29% of the Moon is Illuminated
Today
Waning Crescent
Sep 24
New
Oct 1
First Quarter
Oct 8
Full
Oct 15
Last Quarter

Today's Extremes

State Highs State Lows

Community

WunderPhotos

Upload Photos

1,754,299 photos uploaded!

Nearby

Snow Depth

Station Depth Elevation
No new snow has been reported.

Earthquake Activity

City Distance Mag. Time & Date
No recent earthquake activity has been reported nearby.
Minimum magnitude displayed is 2.5.

Coastal Water Temperatures

Place Temperature
No Stations Reporting

Nearby Weather Stations